Time;durP1;ratioP1;P1;durP2;ratioP2;P2;SDS_P1;SDS_P2;PMS_P1;PMS_P2;Temp;Humidity;BMP_temperature;BMP_pressure;BME280_temperature;BME280_humidity;BME280_pressure;Samples;Min_cycle;Max_cycle;Signal;HPM_P1;HPM_P2
2022/08/13 00:00:46;;;;;;;2.07;1.63;;;18.30;82.00;;;19.38;58.52;98137.75;5058216;28;20910;-77
2022/08/13 00:03:18;;;;;;;2.90;1.90;;;18.40;81.50;;;19.34;58.56;98139.25;5058412;28;20933;-77
2022/08/13 00:06:08;;;;;;;2.70;1.83;;;18.40;82.00;;;19.23;59.29;98144.66;5057868;28;20448;-77
2022/08/13 00:08:49;;;;;;;6.23;2.53;;;18.20;82.60;;;19.16;59.67;98144.00;5058625;28;20879;-77
2022/08/13 00:14:06;;;;;;;2.90;1.87;;;18.20;82.10;;;19.02;60.45;98149.56;5058044;28;20921;-77
2022/08/13 00:16:40;;;;;;;1.90;1.70;;;18.10;82.80;;;18.96;60.73;98149.72;5059996;28;20554;-77
2022/08/13 00:19:10;;;;;;;1.80;1.50;;;18.00;82.90;;;18.87;61.43;98145.88;5054462;28;21018;-77
2022/08/13 00:21:41;;;;;;;16.07;1.73;;;17.80;83.20;;;18.87;61.59;98140.56;5057142;28;21056;-77
2022/08/13 00:24:30;;;;;;;5.63;1.90;;;17.90;83.20;;;18.93;61.30;98139.59;5058792;28;20555;-77
2022/08/13 00:26:59;;;;;;;2.10;1.70;;;17.90;83.20;;;18.92;61.34;98143.28;5055975;28;20498;-77
2022/08/13 00:29:32;;;;;;;2.70;1.80;;;17.80;83.30;;;18.90;61.54;98143.53;5057138;28;20805;-77
2022/08/13 00:32:01;;;;;;;2.07;1.80;;;17.80;83.40;;;18.91;62.01;98149.66;5059499;28;20550;-77
2022/08/13 00:34:30;;;;;;;2.90;1.70;;;17.80;84.00;;;18.90;61.57;98150.69;5062501;28;20458;-77
2022/08/13 00:36:59;;;;;;;3.40;2.03;;;17.80;83.20;;;18.89;62.11;98143.78;5057779;28;20905;-77
2022/08/13 00:39:37;;;;;;;3.80;1.73;;;17.80;83.80;;;18.81;62.11;98136.22;5058942;28;20460;-77
2022/08/13 00:42:27;;;;;;;4.27;1.70;;;17.70;83.90;;;18.86;62.47;98146.91;5061360;28;20963;-77
2022/08/13 00:44:58;;;;;;;2.50;1.70;;;17.70;83.70;;;18.78;62.48;98145.44;5059580;28;20479;-77
2022/08/13 00:50:19;;;;;;;1.60;1.43;;;17.70;83.50;;;18.68;63.03;98144.44;5059956;28;20587;-77
2022/08/13 00:52:49;;;;;;;3.20;2.17;;;17.60;84.20;;;18.64;63.02;98145.97;5062042;28;20464;-77
2022/08/13 00:55:21;;;;;;;3.10;1.73;;;17.60;83.80;;;18.64;63.20;98141.44;5060074;28;21722;-77
2022/08/13 00:57:52;;;;;;;3.50;2.10;;;17.60;85.00;;;18.68;63.38;98145.25;5060770;28;20471;-77
2022/08/13 01:00:31;;;;;;;9.53;1.90;;;17.60;84.20;;;18.61;63.63;98141.91;5057846;28;20474;-77
2022/08/13 01:02:59;;;;;;;3.87;1.70;;;17.50;84.40;;;18.55;63.92;98137.56;5059584;28;20565;-76
2022/08/13 01:05:46;;;;;;;2.70;1.50;;;17.50;84.50;;;18.50;64.05;98135.63;5056843;28;20459;-77
2022/08/13 01:08:19;;;;;;;2.47;1.63;;;17.40;84.60;;;18.49;64.19;98139.31;5056779;28;20461;-77
2022/08/13 01:11:02;;;;;;;5.33;1.77;;;17.40;84.70;;;18.43;64.42;98139.44;5057731;28;20551;-77
2022/08/13 01:13:41;;;;;;;1.87;1.53;;;17.40;84.70;;;18.43;64.80;98140.22;5056870;28;20496;-77
2022/08/13 01:16:14;;;;;;;1.90;1.70;;;17.30;85.20;;;18.40;64.91;98143.34;5056360;28;20463;-77
2022/08/13 01:18:49;;;;;;;2.60;1.50;;;17.40;84.90;;;18.41;65.45;98142.31;5057929;28;20487;-77
2022/08/13 01:21:26;;;;;;;4.43;1.50;;;17.30;85.20;;;18.39;65.16;98139.09;5058679;28;21195;-77
2022/08/13 01:24:12;;;;;;;4.33;1.70;;;17.30;85.30;;;18.32;65.34;98143.72;5057229;28;20461;-77
2022/08/13 01:26:42;;;;;;;3.60;2.10;;;17.30;85.20;;;18.25;66.02;98137.75;5054072;28;20907;-77
2022/08/13 01:29:18;;;;;;;6.60;1.90;;;17.20;85.50;;;18.26;65.77;98139.34;5058276;28;20476;-77
2022/08/13 01:31:51;;;;;;;2.63;2.00;;;17.20;84.90;;;18.21;66.09;98141.91;5057059;28;20453;-77
2022/08/13 01:34:22;;;;;;;4.10;2.17;;;17.10;85.70;;;18.08;66.79;98140.28;5055836;28;20547;-77
2022/08/13 01:36:55;;;;;;;2.97;2.10;;;17.10;85.50;;;18.03;67.38;98139.38;5056521;28;20648;-77
2022/08/13 01:39:29;;;;;;;4.77;2.10;;;17.00;85.70;;;17.98;67.58;98141.91;5056868;28;20467;-77
2022/08/13 01:42:20;;;;;;;1.90;1.63;;;17.10;85.40;;;17.87;68.18;98154.16;5059616;28;20459;-77
2022/08/13 01:45:11;;;;;;;6.80;1.60;;;17.00;86.00;;;17.89;68.64;98144.13;5058919;28;20467;-76
2022/08/13 01:50:37;;;;;;;4.37;2.50;;;16.90;85.90;;;17.82;69.25;98154.00;5056438;28;20603;-77
2022/08/13 01:53:11;;;;;;;3.10;1.70;;;16.80;86.50;;;17.73;69.66;98146.66;5055227;28;20563;-77
2022/08/13 01:55:44;;;;;;;2.60;1.90;;;16.80;86.80;;;17.78;70.08;98152.06;5053520;28;20464;-77
2022/08/13 01:58:34;;;;;;;2.37;1.80;;;16.70;87.20;;;17.79;69.57;98143.09;5054499;28;20461;-77
2022/08/13 02:01:25;;;;;;;12.13;1.60;;;16.70;86.90;;;17.78;69.57;98142.28;5053769;28;20456;-77
2022/08/13 02:04:13;;;;;;;3.13;1.77;;;16.70;86.90;;;17.68;70.19;98143.88;5055491;28;20555;-77
2022/08/13 02:06:50;;;;;;;2.30;1.83;;;16.60;87.10;;;17.65;71.30;98137.22;5055686;28;20959;-77
2022/08/13 02:09:23;;;;;;;3.20;1.80;;;16.50;87.50;;;17.65;70.63;98139.06;5054086;28;20935;-77
2022/08/13 02:12:15;;;;;;;1.70;1.50;;;16.60;86.90;;;17.57;71.10;98140.19;5054958;28;20553;-77
2022/08/13 02:15:05;;;;;;;4.93;1.80;;;16.60;87.10;;;17.51;71.75;98141.91;5057581;28;20467;-77
2022/08/13 02:17:41;;;;;;;3.70;1.87;;;16.50;87.80;;;17.47;71.95;98139.94;5055896;28;20461;-77
2022/08/13 02:20:34;;;;;;;3.97;2.40;;;16.40;88.20;;;17.45;71.99;98142.81;5056596;28;20552;-77
2022/08/13 02:23:07;;;;;;;2.37;1.70;;;16.40;87.50;;;17.40;72.08;98140.03;5056978;28;20460;-76
2022/08/13 02:25:37;;;;;;;3.80;2.00;;;16.40;87.70;;;17.38;72.10;98138.66;5057286;28;20522;-77
2022/08/13 02:28:07;;;;;;;2.03;1.70;;;16.40;87.80;;;17.30;73.32;98139.81;5059314;28;20872;-77
2022/08/13 02:30:53;;;;;;;1.97;1.50;;;16.30;88.20;;;17.27;73.29;98144.72;5058555;28;20522;-77
2022/08/13 02:33:22;;;;;;;5.73;2.00;;;16.30;88.50;;;17.24;73.39;98147.84;5054797;28;20466;-77
2022/08/13 02:35:54;;;;;;;2.87;1.73;;;16.30;87.80;;;17.18;73.89;98144.25;5057910;28;20457;-77
2022/08/13 02:38:26;;;;;;;4.33;1.80;;;16.20;88.50;;;17.15;74.13;98144.69;5054147;28;20468;-77
2022/08/13 02:43:50;;;;;;;2.83;1.90;;;16.00;88.80;;;17.08;75.17;98141.34;5055759;28;20517;-77
2022/08/13 02:46:28;;;;;;;3.13;1.80;;;16.10;89.00;;;16.99;75.59;98137.44;5056694;28;20463;-76
2022/08/13 02:48:59;;;;;;;3.00;1.67;;;16.00;88.90;;;16.90;76.12;98134.28;5056563;28;20488;-77
2022/08/13 02:51:31;;;;;;;6.63;2.27;;;15.90;89.20;;;16.89;76.51;98143.25;5054827;28;20480;-76
2022/08/13 02:54:20;;;;;;;2.60;1.80;;;15.90;89.60;;;16.93;75.96;98139.16;5057187;28;20552;-77
2022/08/13 02:56:53;;;;;;;2.20;1.73;;;15.90;89.40;;;16.91;76.13;98145.66;5059292;28;20447;-77
2022/08/13 02:59:24;;;;;;;6.73;1.80;;;15.90;89.50;;;16.91;76.40;98146.47;5056243;28;20869;-77
2022/08/13 03:02:12;;;;;;;2.13;1.80;;;15.90;89.10;;;16.84;76.38;98143.13;5057100;28;20468;-76
2022/08/13 03:04:49;;;;;;;2.13;1.93;;;15.90;89.00;;;16.77;76.96;98142.41;5056807;28;20986;-82
2022/08/13 03:07:19;;;;;;;4.73;1.90;;;15.90;89.30;;;16.70;77.84;98148.78;5058063;28;20522;-77
2022/08/13 03:09:48;;;;;;;2.33;1.63;;;15.90;89.30;;;16.65;78.51;98146.03;5056248;28;20469;-77
2022/08/13 03:12:21;;;;;;;3.73;2.00;;;15.80;89.80;;;16.59;78.52;98142.47;5055809;28;20519;-77
2022/08/13 03:15:00;;;;;;;2.97;1.90;;;15.70;89.80;;;16.52;78.88;98147.75;5054570;28;20460;-77
2022/08/13 03:17:30;;;;;;;2.10;1.90;;;15.70;89.80;;;16.49;79.39;98145.56;5057252;28;21204;-82
2022/08/13 03:19:58;;;;;;;4.03;1.87;;;15.60;90.10;;;16.47;79.73;98150.28;5054646;28;20549;-76
2022/08/13 03:22:27;;;;;;;6.43;2.53;;;15.50;90.30;;;16.47;79.71;98147.63;5057117;28;21444;-81
2022/08/13 03:24:56;;;;;;;1.90;1.60;;;15.50;90.30;;;16.51;79.87;98148.00;5053383;28;20469;-77
2022/08/13 03:27:27;;;;;;;3.93;1.90;;;15.50;90.40;;;16.44;80.15;98155.19;5055092;28;20539;-77
2022/08/13 03:30:01;;;;;;;3.33;1.80;;;15.40;90.60;;;16.40;80.26;98159.31;5055458;28;20483;-83
2022/08/13 03:32:40;;;;;;;11.30;2.03;;;15.40;90.40;;;16.33;80.74;98153.28;5056342;28;20469;-78
2022/08/13 03:35:14;;;;;;;7.53;1.67;;;15.40;90.30;;;16.29;81.00;98145.00;5054504;28;20591;-77
2022/08/13 03:38:05;;;;;;;19.40;2.37;;;15.40;90.50;;;16.24;81.16;98154.63;5058599;28;20545;-77
2022/08/13 03:43:22;;;;;;;2.07;1.67;;;15.20;90.80;;;16.23;81.70;98150.38;5058992;28;20456;-77
2022/08/13 03:45:54;;;;;;;1.93;1.70;;;15.20;90.70;;;16.20;81.97;98146.34;5056766;28;20519;-77
2022/08/13 03:48:27;;;;;;;2.50;2.00;;;15.20;90.80;;;16.15;82.06;98155.91;5056655;28;20966;-77
2022/08/13 03:51:01;;;;;;;2.97;2.50;;;15.20;90.60;;;16.11;82.55;98152.91;5057804;28;20472;-77
2022/08/13 03:53:31;;;;;;;2.90;1.80;;;15.20;90.80;;;16.07;82.79;98154.38;5054194;28;21218;-77
2022/08/13 03:56:13;;;;;;;3.20;1.60;;;15.20;90.60;;;16.04;83.10;98153.00;5052925;28;20868;-77
2022/08/13 03:58:46;;;;;;;2.57;2.00;;;15.20;90.90;;;16.03;83.02;98159.31;5061117;28;20485;-77
2022/08/13 04:01:18;;;;;;;5.10;3.90;;;15.10;90.80;;;16.08;83.15;98161.28;5063009;28;20926;-77
2022/08/13 04:03:53;;;;;;;2.20;1.73;;;15.10;91.10;;;16.07;82.72;98159.66;5056859;28;20517;-82
2022/08/13 04:06:24;;;;;;;2.50;2.17;;;15.10;90.80;;;16.02;83.39;98162.97;5057032;28;20533;-77
2022/08/13 04:08:56;;;;;;;4.47;2.40;;;15.00;91.10;;;15.99;83.08;98162.59;5061594;28;20476;-77
2022/08/13 04:11:28;;;;;;;10.10;1.87;;;15.10;90.90;;;15.93;83.75;98161.63;5060343;28;20587;-77
2022/08/13 04:13:58;;;;;;;2.17;1.70;;;15.00;91.00;;;15.91;83.96;98154.97;5060541;28;20444;-77
2022/08/13 04:16:47;;;;;;;11.83;1.70;;;15.00;91.10;;;15.89;84.15;98157.81;5062220;28;21063;-77
2022/08/13 04:19:16;;;;;;;2.83;1.70;;;15.00;91.10;;;15.94;83.95;98159.78;5063223;28;20444;-77
2022/08/13 04:21:47;;;;;;;3.00;1.80;;;15.00;91.00;;;15.91;84.24;98166.31;5063124;28;20457;-77
2022/08/13 04:24:18;;;;;;;6.00;1.70;;;14.90;91.20;;;15.93;83.91;98160.84;5060815;28;20961;-77
2022/08/13 04:26:54;;;;;;;2.17;1.80;;;14.90;91.10;;;15.84;84.33;98170.84;5062851;28;21024;-82
2022/08/13 04:29:23;;;;;;;2.23;1.83;;;14.90;91.20;;;15.88;84.30;98165.94;5062218;28;21432;-76
2022/08/13 04:31:54;;;;;;;2.67;2.03;;;14.90;91.30;;;15.81;84.47;98168.66;5062981;28;20495;-77
2022/08/13 04:34:28;;;;;;;4.88;2.08;;;14.90;91.20;;;15.82;85.13;98170.28;5060855;28;20442;-77
2022/08/13 04:37:12;;;;;;;4.20;2.17;;;14.90;91.30;;;15.79;85.32;98164.63;5064802;28;20213;-77
2022/08/13 04:39:51;;;;;;;7.63;1.60;;;14.80;91.30;;;15.83;85.29;98163.13;5061137;28;20456;-77
2022/08/13 04:42:53;;;;;;;3.00;2.23;;;14.80;91.50;;;15.82;84.83;98170.28;5064067;28;20527;-77
2022/08/13 04:45:24;;;;;;;2.67;1.87;;;14.80;91.30;;;15.76;85.26;98172.97;5061007;28;20451;-77
2022/08/13 04:47:58;;;;;;;2.20;1.50;;;14.80;91.50;;;15.73;85.47;98168.09;5061968;28;20447;-77
2022/08/13 04:50:30;;;;;;;6.60;1.90;;;14.80;91.40;;;15.68;86.02;98170.59;5061727;28;20436;-77
2022/08/13 04:53:01;;;;;;;2.80;2.00;;;14.70;91.70;;;15.65;86.41;98171.03;5063128;28;20491;-77
2022/08/13 04:55:37;;;;;;;1.77;1.60;;;14.80;91.60;;;15.64;86.85;98172.03;5061721;28;20962;-77
2022/08/13 04:58:32;;;;;;;1.50;1.40;;;14.70;91.70;;;15.65;87.02;98173.66;5061364;28;20539;-77
2022/08/13 05:01:03;;;;;;;2.30;2.03;;;14.70;91.80;;;15.67;86.92;98172.41;5061649;28;20495;-77
2022/08/13 05:03:55;;;;;;;11.23;1.93;;;14.60;91.80;;;15.64;87.02;98170.22;5062200;28;20469;-77
2022/08/13 05:06:39;;;;;;;6.73;2.23;;;14.70;91.80;;;15.66;86.84;98176.06;5061706;28;20475;-77
2022/08/13 05:09:10;;;;;;;2.30;1.77;;;14.70;91.80;;;15.70;86.61;98171.19;5061965;28;20834;-77
2022/08/13 05:11:40;;;;;;;2.20;1.80;;;14.80;91.70;;;15.67;87.06;98171.63;5062225;28;20533;-77
2022/08/13 05:14:11;;;;;;;1.90;1.50;;;14.70;91.90;;;15.63;87.57;98168.59;5062168;28;20461;-77
2022/08/13 05:16:39;;;;;;;2.30;1.70;;;14.70;91.90;;;15.66;87.68;98167.34;5062689;28;20475;-77
2022/08/13 05:19:09;;;;;;;5.90;1.70;;;14.70;92.00;;;15.71;87.58;98170.16;5061178;28;20443;-77
2022/08/13 05:21:39;;;;;;;1.90;1.73;;;14.70;92.00;;;15.75;87.60;98171.34;5061914;28;20453;-77
2022/08/13 05:24:27;;;;;;;4.63;2.10;;;14.70;92.00;;;15.77;87.75;98174.56;5062275;28;20452;-77
2022/08/13 05:27:16;;;;;;;3.50;1.87;;;14.80;92.00;;;15.80;88.01;98176.75;5061635;28;20481;-77
2022/08/13 05:29:50;;;;;;;2.77;1.70;;;14.80;92.20;;;15.81;88.11;98170.47;5061336;28;20457;-77
2022/08/13 05:32:39;;;;;;;2.47;1.80;;;14.80;92.20;;;15.84;88.25;98176.13;5062053;28;21067;-77
2022/08/13 05:35:20;;;;;;;2.83;1.80;;;14.90;92.10;;;15.85;88.92;98184.84;5061631;28;20447;-77
2022/08/13 05:38:09;;;;;;;2.20;1.60;;;14.90;92.30;;;15.90;88.93;98174.44;5063525;28;20491;-77
2022/08/13 05:40:51;;;;;;;3.27;1.80;;;14.90;92.40;;;15.87;89.63;98180.16;5064440;28;20472;-77
2022/08/13 05:43:25;;;;;;;3.10;1.97;;;15.00;92.20;;;15.91;88.97;98176.88;5060897;28;20453;-77
2022/08/13 05:45:58;;;;;;;2.33;1.77;;;15.00;92.10;;;16.00;88.69;98177.41;5060613;28;20452;-77
2022/08/13 05:48:39;;;;;;;8.53;1.83;;;15.10;92.10;;;16.07;88.20;98176.28;5061123;28;20506;-77
2022/08/13 05:51:13;;;;;;;2.10;1.90;;;15.10;92.00;;;16.16;87.77;98168.91;5062037;28;20457;-77
2022/08/13 05:53:42;;;;;;;8.60;2.10;;;15.10;92.10;;;16.23;87.52;98168.84;5063157;28;20495;-77
2022/08/13 05:56:35;;;;;;;2.73;1.73;;;15.20;92.10;;;16.32;86.60;98168.31;5061228;28;20441;-77
2022/08/13 05:59:05;;;;;;;3.23;2.60;;;15.30;91.70;;;16.41;86.04;98171.47;5062270;28;20526;-77
2022/08/13 06:04:27;;;;;;;3.30;2.27;;;15.50;91.80;;;16.55;85.73;98168.50;5059329;28;20439;-77
2022/08/13 06:07:13;;;;;;;2.20;1.90;;;15.50;91.80;;;16.62;85.57;98173.69;5061420;28;20820;-77
2022/08/13 06:09:44;;;;;;;3.40;1.97;;;15.60;91.80;;;16.69;85.05;98173.59;5060457;28;20464;-77
2022/08/13 06:12:14;;;;;;;1.90;1.57;;;15.70;91.60;;;16.76;84.54;98175.16;5059774;28;20542;-77
2022/08/13 06:14:59;;;;;;;2.87;2.20;;;15.70;91.40;;;16.81;84.58;98169.97;5057179;28;20516;-77
2022/08/13 06:17:38;;;;;;;3.30;2.00;;;15.80;91.50;;;16.85;84.82;98167.69;5060964;28;20453;-77
2022/08/13 06:20:10;;;;;;;2.40;1.60;;;15.70;91.50;;;16.90;84.12;98165.97;5062195;28;20464;-77
2022/08/13 06:22:47;;;;;;;3.70;1.70;;;15.90;91.50;;;16.95;84.25;98170.59;5060822;28;20989;-77
2022/08/13 06:25:22;;;;;;;4.17;2.20;;;15.90;91.70;;;17.02;83.86;98169.50;5060748;28;20463;-77
2022/08/13 06:27:52;;;;;;;8.40;2.00;;;16.00;91.40;;;17.07;83.94;98172.28;5060885;28;21141;-77
2022/08/13 06:30:25;;;;;;;3.03;2.20;;;16.00;91.40;;;17.09;83.81;98170.19;5059737;28;20440;-77
2022/08/13 06:33:01;;;;;;;3.10;1.70;;;16.10;91.60;;;17.11;84.52;98173.41;5061038;28;20492;-77
2022/08/13 06:35:52;;;;;;;2.87;1.77;;;16.10;91.70;;;17.18;84.37;98173.31;5060981;28;20477;-77
2022/08/13 06:38:30;;;;;;;2.30;2.10;;;16.20;91.60;;;17.24;84.30;98172.44;5059573;28;20448;-77
2022/08/13 06:41:04;;;;;;;6.03;2.97;;;16.20;91.60;;;17.31;83.47;98183.72;5061016;28;20532;-78
2022/08/13 06:43:37;;;;;;;2.33;1.70;;;16.30;91.20;;;17.39;82.77;98178.06;5060244;28;20445;-78
2022/08/13 06:46:21;;;;;;;3.33;2.23;;;16.40;91.20;;;17.46;82.39;98181.44;5060525;28;20501;-78
2022/08/13 06:48:59;;;;;;;4.80;1.80;;;16.50;91.10;;;17.52;82.52;98172.59;5062945;28;20449;-78
2022/08/13 06:51:32;;;;;;;3.30;1.80;;;16.50;91.20;;;17.57;82.43;98172.75;5059731;28;20954;-78
2022/08/13 06:54:09;;;;;;;5.57;1.83;;;16.60;91.20;;;17.63;82.42;98170.22;5061468;28;20499;-77
2022/08/13 06:56:58;;;;;;;2.40;1.93;;;16.70;91.30;;;17.70;82.06;98171.72;5061069;28;20460;-78
2022/08/13 06:59:50;;;;;;;2.13;1.80;;;16.70;91.00;;;17.78;81.69;98167.91;5059807;28;20451;-78
2022/08/13 07:02:42;;;;;;;2.10;1.80;;;16.80;90.80;;;17.85;80.91;98173.91;5060853;28;20494;-78
2022/08/13 07:05:13;;;;;;;2.33;1.70;;;16.90;90.70;;;17.93;80.50;98176.22;5060377;28;20943;-78
2022/08/13 07:07:50;;;;;;;2.37;1.90;;;16.90;90.60;;;18.01;80.35;98173.22;5058095;28;20951;-77
2022/08/13 07:10:21;;;;;;;2.67;1.73;;;17.10;90.70;;;18.09;80.86;98172.88;5058371;28;20856;-77
2022/08/13 07:12:53;;;;;;;2.97;1.60;;;17.20;90.90;;;18.16;81.04;98170.91;5058041;28;20491;-77
2022/08/13 07:15:23;;;;;;;2.30;1.80;;;17.20;91.00;;;18.26;80.48;98172.94;5056555;28;20971;-77
2022/08/13 07:18:08;;;;;;;3.20;1.80;;;17.30;90.90;;;18.34;79.97;98168.13;5057024;28;20448;-77
2022/08/13 07:20:39;;;;;;;4.90;1.90;;;17.40;90.70;;;18.42;79.62;98170.41;5058906;28;20460;-77
2022/08/13 07:23:08;;;;;;;4.40;2.03;;;17.50;90.70;;;18.50;79.64;98167.41;5060290;28;20460;-77
2022/08/13 07:26:00;;;;;;;4.40;1.70;;;17.60;90.70;;;18.63;79.15;98170.84;5058794;28;20962;-78
2022/08/13 07:28:37;;;;;;;9.87;1.90;;;17.70;90.60;;;18.70;78.86;98168.88;5059178;28;20944;-77
2022/08/13 07:31:23;;;;;;;7.00;1.93;;;17.80;90.80;;;18.79;78.13;98176.19;5059994;28;20458;-77
2022/08/13 07:33:54;;;;;;;8.13;1.87;;;17.90;90.20;;;18.87;77.91;98173.19;5063054;28;20522;-78
2022/08/13 07:36:33;;;;;;;21.27;3.63;;;18.00;90.20;;;18.95;77.38;98167.47;5064182;28;20459;-78
2022/08/13 07:39:03;;;;;;;2.90;1.87;;;18.10;90.00;;;19.03;76.50;98168.94;5063913;28;20989;-78
2022/08/13 07:41:41;;;;;;;2.97;1.80;;;18.20;90.00;;;19.16;74.95;98160.69;5062028;28;20555;-78
2022/08/13 07:44:30;;;;;;;3.60;1.83;;;18.40;89.30;;;19.28;74.35;98169.41;5063901;28;20460;-78
2022/08/13 07:47:14;;;;;;;4.10;1.63;;;18.50;89.00;;;19.35;74.46;98156.78;5065120;28;20439;-77
2022/08/13 07:49:55;;;;;;;1.80;1.60;;;18.60;89.10;;;19.46;74.14;98160.44;5062404;28;20460;-77
2022/08/13 07:52:28;;;;;;;6.07;2.27;;;18.70;89.10;;;19.54;73.74;98160.84;5061405;28;20515;-78
2022/08/13 07:55:01;;;;;;;6.23;1.60;;;18.70;88.30;;;19.66;72.83;98166.06;5065000;28;20448;-77
2022/08/13 07:57:33;;;;;;;2.87;1.60;;;18.80;88.30;;;19.75;72.31;98164.59;5063903;28;20437;-77
2022/08/13 08:00:21;;;;;;;1.80;1.57;;;19.00;88.20;;;19.85;71.57;98158.66;5062605;28;20483;-78
2022/08/13 08:02:57;;;;;;;3.73;1.77;;;19.10;87.60;;;19.99;70.79;98162.59;5063887;28;20480;-78
2022/08/13 08:05:30;;;;;;;3.90;2.33;;;19.20;87.10;;;20.10;70.94;98156.34;5062417;28;20468;-78
2022/08/13 08:08:11;;;;;;;3.10;1.50;;;19.40;87.30;;;20.19;69.37;98152.22;5063930;28;20536;-78
2022/08/13 08:10:47;;;;;;;2.70;1.40;;;19.50;86.80;;;20.33;68.49;98155.34;5063408;28;21229;-78
2022/08/13 08:13:17;;;;;;;1.60;1.43;;;19.60;86.10;;;20.42;67.43;98151.22;5064044;28;20533;-78
2022/08/13 08:15:48;;;;;;;2.10;1.40;;;19.80;85.80;;;20.53;66.32;98151.09;5062972;28;20448;-77
2022/08/13 08:18:34;;;;;;;1.80;1.53;;;19.90;85.40;;;20.66;66.58;98149.09;5064060;28;20538;-78
2022/08/13 08:21:24;;;;;;;8.03;2.20;;;20.00;85.60;;;20.77;65.72;98145.50;5060586;28;20540;-78
2022/08/13 08:24:16;;;;;;;2.97;1.30;;;20.10;85.20;;;20.88;65.02;98147.22;5057115;28;20440;-78
2022/08/13 08:27:00;;;;;;;3.93;1.50;;;20.20;84.70;;;20.99;63.44;98151.59;5057664;28;20481;-78
2022/08/13 08:29:32;;;;;;;1.80;1.50;;;20.40;84.10;;;21.08;63.48;98153.53;5058313;28;20448;-78
2022/08/13 08:32:21;;;;;;;3.40;1.50;;;20.50;84.20;;;21.21;63.82;98156.91;5058224;28;20473;-78
2022/08/13 08:35:06;;;;;;;7.97;1.93;;;20.50;84.20;;;21.29;62.53;98162.53;5057293;28;20491;-78
2022/08/13 08:43:29;;;;;;;2.50;1.80;;;20.90;83.00;;;21.58;60.41;98152.41;5061612;28;20539;-78
2022/08/13 08:46:17;;;;;;;3.43;1.90;;;20.90;82.50;;;21.70;60.27;98149.53;5061956;28;20854;-78
2022/08/13 08:48:47;;;;;;;3.53;1.80;;;21.10;82.50;;;21.84;59.52;98145.38;5062639;28;20537;-78
2022/08/13 08:51:25;;;;;;;6.50;1.60;;;21.30;81.80;;;22.01;58.00;98140.72;5062565;28;20461;-78
2022/08/13 08:53:55;;;;;;;6.37;1.70;;;21.50;80.80;;;22.14;57.15;98144.81;5062023;28;21217;-78
2022/08/13 08:56:45;;;;;;;1.77;1.40;;;21.70;80.50;;;22.26;56.80;98148.84;5061867;28;20531;-78
2022/08/13 08:59:28;;;;;;;4.73;1.60;;;21.70;80.40;;;22.35;56.03;98135.84;5061915;28;20828;-78
2022/08/13 09:01:59;;;;;;;1.70;1.30;;;21.90;79.60;;;22.46;55.28;98137.47;5060989;28;20452;-78
2022/08/13 09:04:32;;;;;;;2.13;1.47;;;22.00;79.10;;;22.55;55.36;98131.41;5061306;28;20478;-78
2022/08/13 09:07:21;;;;;;;2.67;1.43;;;21.90;79.40;;;22.59;54.46;98124.47;5060516;28;20439;-78
2022/08/13 09:09:55;;;;;;;1.43;1.30;;;21.90;78.80;;;22.65;53.46;98129.81;5060988;28;20540;-78
2022/08/13 09:12:27;;;;;;;2.30;1.50;;;22.00;78.20;;;22.71;53.82;98123.47;5059422;28;20452;-78
2022/08/13 09:14:59;;;;;;;3.03;1.50;;;22.10;78.40;;;22.78;54.00;98124.00;5061762;28;20491;-78
2022/08/13 09:17:32;;;;;;;1.63;1.37;;;22.30;78.50;;;22.83;53.31;98121.38;5061750;28;20962;-78
2022/08/13 09:20:13;;;;;;;3.40;1.47;;;22.20;78.00;;;22.89;52.61;98120.31;5061054;28;20457;-78
2022/08/13 09:22:48;;;;;;;2.63;1.30;;;22.30;77.40;;;22.98;52.51;98121.38;5061120;28;20465;-79
2022/08/13 09:25:26;;;;;;;1.60;1.37;;;22.40;77.60;;;23.08;52.82;98117.94;5061800;28;20444;-78
2022/08/13 09:27:57;;;;;;;2.60;1.60;;;22.50;77.80;;;23.20;51.83;98119.28;5060513;28;20874;-78
2022/08/13 09:30:45;;;;;;;3.20;1.70;;;22.70;77.20;;;23.34;50.81;98131.03;5061918;28;20452;-78
2022/08/13 09:33:20;;;;;;;1.70;1.53;;;22.90;76.20;;;23.45;49.38;98119.31;5060096;28;20452;-78
2022/08/13 09:36:11;;;;;;;5.30;1.50;;;23.00;74.90;;;23.54;48.87;98112.34;5058869;28;21031;-78
2022/08/13 09:38:51;;;;;;;1.83;1.37;;;23.10;74.40;;;23.68;47.33;98122.47;5062469;28;20477;-78
2022/08/13 09:41:28;;;;;;;1.63;1.33;;;23.20;73.00;;;23.79;47.85;98129.41;5061543;28;20463;-78
2022/08/13 09:44:01;;;;;;;2.33;1.47;;;23.30;73.60;;;23.83;48.09;98114.44;5060821;28;20833;-78
2022/08/13 09:46:37;;;;;;;1.80;1.50;;;23.30;73.90;;;23.92;48.23;98112.81;5061264;28;20439;-78
2022/08/13 09:49:11;;;;;;;1.97;1.57;;;23.40;74.10;;;23.96;47.80;98116.56;5060645;28;20499;-78
2022/08/13 09:51:45;;;;;;;3.67;1.73;;;23.40;73.60;;;23.98;47.65;98099.16;5060523;28;20957;-78
2022/08/13 09:54:28;;;;;;;4.17;1.37;;;23.40;73.60;;;24.02;47.08;98110.91;5060905;28;20486;-78
2022/08/13 09:56:58;;;;;;;3.80;1.37;;;23.50;73.60;;;24.12;46.49;98123.47;5061810;28;20449;-78
2022/08/13 09:59:32;;;;;;;5.23;1.33;;;23.60;72.40;;;24.17;46.46;98110.09;5059780;28;20555;-78
2022/08/13 10:02:09;;;;;;;2.27;1.50;;;23.70;72.60;;;24.21;46.15;98110.38;5060765;28;20520;-78
2022/08/13 10:04:45;;;;;;;6.40;2.13;;;23.70;72.10;;;24.24;45.57;98099.94;5061598;28;20445;-78
2022/08/13 10:07:16;;;;;;;4.63;1.60;;;23.80;71.80;;;24.29;45.26;98107.94;5060867;28;20448;-78
2022/08/13 10:09:50;;;;;;;2.47;1.50;;;23.80;71.40;;;24.31;44.64;98103.09;5060367;28;20572;-78
2022/08/13 10:12:39;;;;;;;4.50;1.50;;;23.70;70.60;;;24.40;44.35;98095.34;5060306;28;20444;-78
2022/08/13 10:15:10;;;;;;;2.40;1.53;;;23.90;70.50;;;24.46;44.19;98095.03;5059874;28;20547;-78
2022/08/13 10:17:57;;;;;;;4.13;1.57;;;24.00;70.00;;;24.58;43.91;98088.53;5061190;28;20456;-78
2022/08/13 10:20:36;;;;;;;1.60;1.30;;;24.20;70.30;;;24.65;43.69;98091.69;5059277;28;20492;-78
2022/08/13 10:23:08;;;;;;;11.43;1.50;;;24.20;69.60;;;24.73;43.24;98093.78;5059969;28;20460;-78
2022/08/13 10:25:38;;;;;;;2.20;1.50;;;24.30;69.50;;;24.74;42.77;98092.72;5060055;28;20519;-79
2022/08/13 10:28:22;;;;;;;1.60;1.40;;;24.20;68.50;;;24.73;43.40;98091.94;5060040;28;20460;-78
2022/08/13 10:31:01;;;;;;;4.40;1.20;;;24.10;70.10;;;24.76;43.61;98085.22;5060324;28;20457;-78
2022/08/13 10:33:54;;;;;;;2.10;1.50;;;24.10;70.10;;;24.85;43.78;98076.34;5059284;28;20776;-78
2022/08/13 10:36:30;;;;;;;2.10;1.60;;;24.40;70.30;;;24.92;44.00;98078.72;5057206;28;20923;-78
2022/08/13 10:39:06;;;;;;;4.93;1.50;;;24.40;70.60;;;24.96;43.38;98069.03;5056675;28;20472;-78
2022/08/13 10:41:43;;;;;;;2.13;1.37;;;24.40;69.80;;;25.01;43.68;98063.66;5055378;28;20457;-78
2022/08/13 10:44:31;;;;;;;2.70;1.70;;;24.50;70.00;;;25.05;43.47;98070.06;5056962;28;20460;-78
2022/08/13 10:47:00;;;;;;;5.60;1.90;;;24.60;70.20;;;25.14;43.07;98072.94;5060315;28;20574;-79
2022/08/13 10:49:29;;;;;;;7.10;1.60;;;24.60;69.70;;;25.20;43.65;98069.94;5058824;28;21080;-78
2022/08/13 10:52:03;;;;;;;1.83;1.40;;;24.70;70.00;;;25.20;43.84;98056.53;5060324;28;20448;-78
2022/08/13 10:54:33;;;;;;;1.90;1.63;;;24.60;69.60;;;25.24;42.80;98059.47;5058374;28;20526;-78
2022/08/13 10:57:05;;;;;;;1.83;1.53;;;24.70;69.50;;;25.23;43.44;98058.69;5060284;28;20958;-78
2022/08/13 10:59:37;;;;;;;3.00;1.60;;;24.70;69.80;;;25.23;43.36;98056.00;5060577;28;20552;-78
2022/08/13 11:02:07;;;;;;;5.23;1.50;;;24.60;70.30;;;25.25;43.67;98050.34;5059708;28;20441;-78
2022/08/13 11:04:48;;;;;;;2.33;1.67;;;24.60;70.30;;;25.25;42.74;98053.84;5060038;28;20448;-78
2022/08/13 11:07:21;;;;;;;4.30;1.57;;;24.60;69.60;;;25.27;43.26;98064.28;5058731;28;20520;-78
2022/08/13 11:09:50;;;;;;;4.53;1.63;;;24.60;70.30;;;25.32;42.85;98062.34;5058596;28;20934;-78
2022/08/13 11:12:20;;;;;;;3.10;1.40;;;24.80;69.10;;;25.37;42.68;98054.25;5059519;28;20472;-79
2022/08/13 11:14:53;;;;;;;2.03;1.67;;;24.80;68.80;;;25.45;42.27;98056.31;5059102;28;20507;-78
2022/08/13 11:17:22;;;;;;;1.57;1.43;;;24.90;68.80;;;25.48;41.17;98055.75;5061752;28;20452;-79
2022/08/13 11:20:16;;;;;;;1.53;1.30;;;24.90;67.30;;;25.54;40.83;98043.16;5059943;28;20453;-78